Date,TemperatureHighF,TemperatureAvgF,TemperatureLowF,DewpointHighF,DewpointAvgF,DewpointLowF,HumidityHigh,HumidityAvg,HumidityLow,PressureMaxIn,PressureMinIn,WindSpeedMaxMPH,WindSpeedAvgMPH,GustSpeedMaxMPH,PrecipitationSumIn
2013-6-1,89.9,77.9,72.0,75.6,70.8,67.9,94,80,58,29.90,29.80,4,0,14,0.02
2013-6-2,82.2,73.2,66.3,71.4,68.5,65.1,100,86,65,29.91,29.80,6,1,20,1.23
2013-6-3,84.3,75.5,67.4,70.0,67.5,65.0,95,78,56,29.89,29.79,3,1,13,0.00
2013-6-4,89.3,76.9,64.2,76.3,69.7,63.3,98,80,57,29.88,29.78,2,0,10,0.00
2013-6-5,90.3,75.8,68.6,78.6,71.7,66.7,100,89,57,29.86,29.71,6,1,26,1.56
2013-6-6,86.7,72.9,67.9,82.8,71.1,66.9,100,95,66,29.78,29.68,4,1,21,0.24
2013-6-7,81.6,72.9,65.8,75.8,69.3,63.4,100,89,63,29.82,29.69,4,0,12,0.05
2013-6-8,84.1,73.6,61.3,72.9,66.1,60.2,100,79,56,29.91,29.82,2,0,10,0.03
2013-6-9,86.1,76.4,67.8,74.4,70.7,66.3,100,83,66,29.90,29.78,4,1,14,0.01
2013-6-10,90.3,78.9,68.3,73.2,70.0,66.7,95,76,50,29.91,29.85,3,1,12,0.00
2013-6-11,92.5,80.5,69.8,77.7,73.1,68.9,100,80,56,30.00,29.90,3,1,12,0.00
2013-6-12,73.9,72.8,71.8,71.4,70.9,70.3,95,94,92,29.96,29.93,0,0,0,0.00
2013-6-13,92.5,65.4,69.4,78.3,34.2,-99.9,100,66,57,29.95,29.78,5,2,13,0.00
2013-6-14,86.3,46.9,69.8,75.8,-5.9,-99.9,94,61,47,29.91,29.80,4,1,11,0.10
2013-6-15,89.7,27.5,61.2,69.8,-41.3,-99.9,97,52,49,29.97,29.88,2,0,12,0.00
2013-6-16,91.0,12.3,75.3,73.1,-85.5,-99.9,95,24,55,29.99,29.89,3,0,7,0.00
2013-6-17,88.2,32.4,70.4,84.9,-29.9,-99.9,100,65,58,29.92,29.80,3,1,10,0.08
2013-6-18,84.3,21.6,74.0,75.7,-56.7,-99.9,95,35,68,29.90,29.80,4,1,12,0.03
2013-6-19,88.4,27.9,74.7,76.3,-43.1,-99.9,75,29,55,29.96,29.85,2,0,10,0.00
2013-6-20,90.1,31.3,67.4,71.5,-36.3,-99.9,100,43,49,30.05,29.94,2,0,8,0.00
2013-6-21,-200.0,0.0,200.0,-99.9,-99.9,-99.9,98,8,98,30.03,30.00,0,0,0,0.00